Aviation Digital Data Service (ADDS)

Output produced by METARs form (1514 UTC 22 April 2021)
found at http://www.aviationweather.gov/metar/data/
 
KEAU 221456Z 26010KT 10SM CLR 08/M04 A2998 RMK AO2 SLP158 T00781039 58004
KEAU 221120Z 2212/2312 VRB03KT P6SM SCT080 
     FM221700 25011KT P6SM SKC 
     FM230100 22005KT P6SM BKN110
       
KRNH 221455Z AUTO 25008KT 10SM CLR 09/M05 A2997 RMK AO2 T00891046
KRNH 221435Z AUTO 27009KT 10SM CLR 08/M04 A2997 RMK AO2 T00791044
KRNH 221415Z AUTO 26008KT 10SM CLR 07/M04 A2997 RMK AO2 T00711040
KRNH 221120Z 2212/2312 23006KT P6SM SKC 
     FM221800 24011G16KT P6SM SCT250 
     FM230000 23007KT P6SM SKC 
     FM231100 19005KT P6SM -SHRA OVC050
       
KMSP 221453Z 27009KT 10SM CLR 10/M04 A2999 RMK AO2 SLP160 T01001039 50002
KMSP 221359Z 2214/2318 25007G12KT P6SM SKC 
     FM221600 24008G18KT P6SM SKC 
     FM230300 21008KT P6SM BKN180 
     FM230900 20006KT P6SM -SHRA SCT035 OVC060 
     FM231100 18006KT P6SM -SHRA BKN025 
     FM231300 16007KT P6SM BKN015